Time;durP1;ratioP1;P1;durP2;ratioP2;P2;SDS_P1;SDS_P2;PMS_P1;PMS_P2;Temp;Humidity;BMP_temperature;BMP_pressure;BME280_temperature;BME280_humidity;BME280_pressure;Samples;Min_cycle;Max_cycle;Signal;HPM_P1;HPM_P2
2023/06/02 00:00:39;;;;;;;3.30;1.20;;;14.40;93.50;;;;;;5051021;28;20029;-85
2023/06/02 00:03:06;;;;;;;4.43;1.10;;;14.40;93.60;;;;;;5051797;28;20429;-84
2023/06/02 00:05:32;;;;;;;5.47;1.30;;;14.50;93.50;;;;;;5055340;28;20028;-84
2023/06/02 00:07:58;;;;;;;6.22;1.30;;;14.50;93.50;;;;;;5052140;28;20052;-85
2023/06/02 00:10:24;;;;;;;4.85;1.20;;;14.40;93.50;;;;;;5051730;28;20112;-85
2023/06/02 00:12:50;;;;;;;4.43;1.10;;;14.40;93.60;;;;;;5050664;28;20452;-85
2023/06/02 00:15:17;;;;;;;3.40;1.10;;;14.30;93.60;;;;;;5053887;28;20421;-85
2023/06/02 00:17:42;;;;;;;5.63;1.42;;;14.30;93.70;;;;;;5057219;28;20035;-84
2023/06/02 00:20:11;;;;;;;5.53;1.50;;;14.30;93.70;;;;;;5051817;28;20021;-84
2023/06/02 00:22:38;;;;;;;3.45;1.00;;;14.30;93.60;;;;;;5049920;28;20044;-84
2023/06/02 00:25:04;;;;;;;6.05;1.48;;;14.30;93.70;;;;;;5056010;28;20538;-83
2023/06/02 00:27:30;;;;;;;5.85;1.40;;;14.30;93.70;;;;;;5051300;28;20811;-84
2023/06/02 00:29:55;;;;;;;5.15;1.15;;;14.20;93.80;;;;;;5056486;28;20021;-84
2023/06/02 00:32:21;;;;;;;4.82;1.45;;;14.20;93.90;;;;;;5055229;28;20094;-84
2023/06/02 00:34:46;;;;;;;3.75;1.40;;;14.20;93.80;;;;;;5055736;28;20048;-84
2023/06/02 00:37:12;;;;;;;6.05;1.73;;;14.10;93.80;;;;;;5053000;28;20029;-84
2023/06/02 00:39:38;;;;;;;4.80;1.23;;;14.20;93.80;;;;;;5053458;28;20063;-84
2023/06/02 00:42:04;;;;;;;5.65;1.30;;;14.10;93.90;;;;;;5057229;28;20024;-83
2023/06/02 00:44:30;;;;;;;5.32;1.25;;;14.20;93.80;;;;;;5052473;28;20036;-84
2023/06/02 00:46:56;;;;;;;6.53;1.63;;;14.00;93.80;;;;;;5051961;28;20105;-83
2023/06/02 00:49:22;;;;;;;6.57;1.45;;;14.00;93.90;;;;;;5055989;28;20036;-84
2023/06/02 00:51:48;;;;;;;4.30;1.00;;;14.00;93.90;;;;;;5054253;28;20047;-83
2023/06/02 00:54:16;;;;;;;4.63;1.30;;;13.90;94.00;;;;;;5051533;28;20044;-83
2023/06/02 00:56:42;;;;;;;6.05;1.30;;;14.00;94.00;;;;;;5065984;28;20032;-84
2023/06/02 00:59:10;;;;;;;5.45;1.38;;;14.00;94.00;;;;;;5054856;28;20036;-84
2023/06/02 01:01:36;;;;;;;5.13;1.38;;;14.10;93.90;;;;;;5055983;28;20163;-84
2023/06/02 01:04:01;;;;;;;5.50;1.30;;;14.00;93.90;;;;;;5064647;28;20510;-85
2023/06/02 01:06:34;;;;;;;4.93;1.55;;;13.90;93.90;;;;;;5055382;28;20024;-84
2023/06/02 01:09:03;;;;;;;4.78;1.30;;;13.90;94.00;;;;;;5054287;28;20032;-85
2023/06/02 01:11:29;;;;;;;5.35;1.38;;;13.90;94.00;;;;;;5055770;28;21289;-84
2023/06/02 01:13:55;;;;;;;6.57;1.52;;;13.80;94.00;;;;;;5055563;28;20045;-83
2023/06/02 01:16:21;;;;;;;5.82;1.80;;;13.80;94.10;;;;;;5043379;28;20039;-84
2023/06/02 01:18:49;;;;;;;3.60;1.20;;;13.80;94.10;;;;;;5059967;28;20604;-83
2023/06/02 01:21:22;;;;;;;5.32;1.73;;;13.80;94.10;;;;;;5055136;28;20021;-84
2023/06/02 01:23:51;;;;;;;6.68;1.63;;;13.80;94.00;;;;;;5055113;28;20033;-85
2023/06/02 01:26:16;;;;;;;5.80;1.58;;;13.70;94.00;;;;;;5054235;28;20037;-84
2023/06/02 01:28:42;;;;;;;4.80;1.70;;;13.60;94.00;;;;;;5056259;28;20032;-84
2023/06/02 01:31:30;;;;;;;5.28;1.70;;;13.60;94.10;;;;;;5055873;28;20454;-84
2023/06/02 01:34:00;;;;;;;4.57;1.30;;;13.50;94.10;;;;;;5054586;28;20116;-85
2023/06/02 01:36:28;;;;;;;5.25;1.58;;;13.40;94.20;;;;;;5053772;28;20028;-84
2023/06/02 01:38:56;;;;;;;5.30;1.27;;;13.50;94.20;;;;;;5058547;28;20123;-85
2023/06/02 01:41:23;;;;;;;5.22;1.40;;;13.50;94.10;;;;;;5056339;28;20118;-84
2023/06/02 01:43:49;;;;;;;6.55;1.52;;;13.50;94.00;;;;;;5065402;28;20513;-85
2023/06/02 01:46:16;;;;;;;3.60;1.20;;;13.50;94.00;;;;;;5059829;28;20031;-85
2023/06/02 01:48:41;;;;;;;6.03;1.75;;;13.40;94.00;;;;;;5055700;28;20025;-84
2023/06/02 01:51:07;;;;;;;6.75;2.00;;;13.30;94.00;;;;;;5064236;28;20035;-85
2023/06/02 01:53:33;;;;;;;7.18;1.80;;;13.30;94.10;;;;;;5054589;28;20060;-85
2023/06/02 01:55:58;;;;;;;4.68;1.55;;;13.30;94.10;;;;;;5065328;28;20021;-84
2023/06/02 01:58:25;;;;;;;4.47;1.58;;;13.30;94.00;;;;;;5059059;28;20047;-84
2023/06/02 02:00:50;;;;;;;5.22;1.40;;;13.40;94.10;;;;;;5054401;28;20017;-85
2023/06/02 02:03:17;;;;;;;4.20;1.52;;;13.40;94.10;;;;;;5058171;28;20034;-85
2023/06/02 02:05:43;;;;;;;4.68;1.67;;;13.50;94.10;;;;;;5054288;28;20048;-84
2023/06/02 02:08:11;;;;;;;3.58;1.38;;;13.60;94.00;;;;;;5052372;28;20029;-84
2023/06/02 02:10:37;;;;;;;4.38;1.60;;;13.50;94.00;;;;;;5053660;28;20021;-84
2023/06/02 02:13:03;;;;;;;6.18;1.55;;;13.40;94.10;;;;;;5059172;28;20102;-84
2023/06/02 02:15:28;;;;;;;3.25;1.27;;;13.30;94.20;;;;;;5057802;28;20021;-85
2023/06/02 02:17:56;;;;;;;4.70;1.50;;;13.40;94.20;;;;;;5054426;28;20063;-85
2023/06/02 02:20:23;;;;;;;7.90;1.42;;;13.40;94.20;;;;;;5064469;28;20025;-84
2023/06/02 02:22:49;;;;;;;5.90;1.60;;;13.30;94.20;;;;;;5063011;28;20048;-85
2023/06/02 02:25:15;;;;;;;6.93;1.45;;;13.20;94.30;;;;;;5054173;28;20036;-85
2023/06/02 02:27:40;;;;;;;5.93;1.73;;;13.10;94.30;;;;;;5052459;28;20123;-85
2023/06/02 02:30:07;;;;;;;3.92;1.60;;;13.10;94.40;;;;;;5053424;28;20123;-85
2023/06/02 02:32:39;;;;;;;6.05;1.55;;;13.10;94.40;;;;;;5056523;28;20045;-84
2023/06/02 02:35:06;;;;;;;6.40;1.58;;;13.10;94.40;;;;;;5053626;28;20337;-85
2023/06/02 02:37:32;;;;;;;6.68;2.30;;;13.10;94.30;;;;;;5052842;28;20028;-84
2023/06/02 02:39:58;;;;;;;3.40;1.23;;;13.10;94.40;;;;;;5054010;28;20034;-86
2023/06/02 02:42:23;;;;;;;4.20;1.55;;;13.10;94.40;;;;;;5052470;28;20041;-83
2023/06/02 02:44:49;;;;;;;4.85;1.30;;;13.10;94.40;;;;;;5053515;28;20174;-85
2023/06/02 02:47:14;;;;;;;5.20;1.98;;;13.10;94.40;;;;;;5062394;28;20141;-84
2023/06/02 02:49:40;;;;;;;4.65;1.35;;;13.20;94.40;;;;;;5054788;28;20090;-85
2023/06/02 02:52:06;;;;;;;4.03;1.13;;;13.20;94.40;;;;;;5058403;28;20087;-84
2023/06/02 02:54:31;;;;;;;8.35;1.70;;;13.10;94.40;;;;;;5052084;28;20036;-84
2023/06/02 02:56:57;;;;;;;4.38;1.00;;;13.10;94.50;;;;;;5055516;28;20074;-84
2023/06/02 02:59:22;;;;;;;4.97;1.25;;;13.10;94.40;;;;;;5052414;28;20029;-84
2023/06/02 03:01:48;;;;;;;4.95;1.55;;;13.10;94.50;;;;;;5057463;28;20036;-85
2023/06/02 03:04:18;;;;;;;3.17;1.15;;;13.20;94.50;;;;;;5052523;28;20013;-85
2023/06/02 03:06:48;;;;;;;6.07;1.35;;;13.20;94.50;;;;;;5058459;28;20535;-85
2023/06/02 03:09:14;;;;;;;4.30;1.60;;;13.10;94.60;;;;;;5053896;28;20060;-84
2023/06/02 03:11:40;;;;;;;4.82;1.27;;;13.00;94.70;;;;;;5045400;28;20438;-85
2023/06/02 03:14:05;;;;;;;5.20;1.20;;;13.10;94.70;;;;;;5052938;28;20040;-84
2023/06/02 03:16:31;;;;;;;4.20;1.10;;;13.10;94.70;;;;;;5053691;28;20553;-84
2023/06/02 03:18:57;;;;;;;4.43;1.42;;;13.10;94.70;;;;;;5052077;28;20478;-84
2023/06/02 03:21:23;;;;;;;3.08;0.95;;;13.10;94.70;;;;;;5051725;28;20028;-85
2023/06/02 03:23:49;;;;;;;4.72;1.15;;;13.00;94.70;;;;;;5055842;28;20031;-85
2023/06/02 03:26:16;;;;;;;5.07;1.20;;;13.00;94.80;;;;;;5066588;28;20025;-84
2023/06/02 03:28:42;;;;;;;4.95;1.73;;;13.00;94.80;;;;;;5072658;28;20032;-84
2023/06/02 03:31:09;;;;;;;5.18;1.58;;;12.90;94.80;;;;;;5063254;28;20452;-84
2023/06/02 03:33:35;;;;;;;6.00;1.73;;;13.00;94.90;;;;;;5064426;28;20123;-85
2023/06/02 03:36:00;;;;;;;3.80;1.20;;;13.00;94.90;;;;;;5072880;28;20028;-84
2023/06/02 03:38:26;;;;;;;3.90;1.45;;;13.10;94.90;;;;;;5061482;28;20028;-85
2023/06/02 03:40:52;;;;;;;7.75;1.23;;;13.10;94.90;;;;;;5060880;28;20040;-85
2023/06/02 03:43:17;;;;;;;4.07;1.40;;;13.00;94.90;;;;;;5056216;28;20492;-85
2023/06/02 03:45:43;;;;;;;2.55;0.90;;;13.00;95.00;;;;;;5073873;28;20027;-85
2023/06/02 03:48:09;;;;;;;5.60;1.45;;;12.90;95.10;;;;;;5074528;28;20456;-84
2023/06/02 03:50:36;;;;;;;4.78;1.10;;;12.90;95.10;;;;;;5061671;28;20114;-85
2023/06/02 03:53:02;;;;;;;5.00;1.48;;;12.90;95.10;;;;;;5072031;28;20139;-84
2023/06/02 03:55:27;;;;;;;4.00;0.88;;;12.90;95.10;;;;;;5071750;28;20102;-84
2023/06/02 03:57:53;;;;;;;4.38;1.00;;;12.90;95.10;;;;;;5061396;28;20539;-85
2023/06/02 04:00:19;;;;;;;4.43;1.17;;;12.80;95.10;;;;;;5062223;28;20535;-84
2023/06/02 04:02:44;;;;;;;4.45;1.33;;;12.80;95.10;;;;;;5073638;28;20186;-84
2023/06/02 04:05:11;;;;;;;5.00;1.20;;;12.80;95.10;;;;;;5062724;28;20036;-84
2023/06/02 04:07:37;;;;;;;4.03;1.20;;;12.80;95.10;;;;;;5071975;28;20830;-84
2023/06/02 04:10:03;;;;;;;4.80;1.48;;;12.80;95.20;;;;;;5072440;28;20032;-84
2023/06/02 04:12:29;;;;;;;5.88;1.50;;;12.90;95.20;;;;;;5058653;28;20145;-84
2023/06/02 04:14:54;;;;;;;5.60;1.88;;;12.90;95.10;;;;;;5072594;28;20597;-85
2023/06/02 04:17:20;;;;;;;3.25;1.02;;;12.70;95.10;;;;;;5073245;28;20400;-86
2023/06/02 04:19:46;;;;;;;3.95;1.10;;;12.70;95.30;;;;;;5055429;28;20024;-85
2023/06/02 04:22:12;;;;;;;3.35;1.35;;;12.70;95.20;;;;;;5054719;28;20055;-84
2023/06/02 04:24:40;;;;;;;3.60;0.90;;;12.80;95.20;;;;;;5056157;28;20044;-84
2023/06/02 04:27:06;;;;;;;2.88;1.00;;;12.80;95.20;;;;;;5057694;28;20028;-84
2023/06/02 04:29:33;;;;;;;3.38;0.98;;;12.90;95.20;;;;;;5075867;28;20031;-84
2023/06/02 04:31:58;;;;;;;3.30;1.27;;;12.90;95.20;;;;;;5062298;28;20032;-85
2023/06/02 04:34:24;;;;;;;2.88;0.90;;;12.80;95.20;;;;;;5075366;28;20375;-85
2023/06/02 04:36:50;;;;;;;5.63;1.60;;;12.80;95.20;;;;;;5074235;28;20052;-84
2023/06/02 04:39:15;;;;;;;3.67;1.20;;;12.80;95.30;;;;;;5065822;28;20032;-84
2023/06/02 04:41:42;;;;;;;4.10;1.23;;;12.80;95.20;;;;;;5061925;28;20028;-84
2023/06/02 04:44:08;;;;;;;4.43;1.48;;;12.90;95.20;;;;;;5066538;28;20024;-85
2023/06/02 04:46:34;;;;;;;5.97;1.65;;;12.90;95.20;;;;;;5077932;28;20043;-84
2023/06/02 04:48:59;;;;;;;2.90;0.68;;;12.80;95.20;;;;;;5060801;28;20153;-84
2023/06/02 04:51:27;;;;;;;3.63;1.02;;;12.80;95.20;;;;;;5058869;28;20031;-84
2023/06/02 04:53:52;;;;;;;5.15;1.40;;;12.90;95.20;;;;;;5064781;28;20084;-84
2023/06/02 04:56:18;;;;;;;7.03;1.27;;;12.90;95.20;;;;;;5060113;28;20020;-84
2023/06/02 04:58:43;;;;;;;5.22;1.20;;;12.90;95.20;;;;;;5075649;28;20036;-84
2023/06/02 05:01:09;;;;;;;5.80;1.40;;;12.90;95.20;;;;;;5076827;28;20024;-84
2023/06/02 05:03:34;;;;;;;5.07;1.33;;;12.80;95.20;;;;;;5059845;28;20055;-84
2023/06/02 05:06:02;;;;;;;4.50;1.23;;;12.80;95.30;;;;;;5074033;28;20051;-85
2023/06/02 05:08:27;;;;;;;4.30;1.10;;;12.80;95.20;;;;;;5059360;28;20520;-84
2023/06/02 05:10:53;;;;;;;6.53;1.33;;;12.70;95.30;;;;;;5066024;28;20029;-84
2023/06/02 05:13:19;;;;;;;6.00;1.35;;;12.80;95.20;;;;;;5076363;28;20045;-84
2023/06/02 05:15:44;;;;;;;6.60;1.75;;;12.90;95.30;;;;;;5076695;28;20097;-84
2023/06/02 05:18:11;;;;;;;5.25;1.30;;;12.90;95.20;;;;;;5062364;28;20440;-84
2023/06/02 05:20:36;;;;;;;5.07;1.60;;;12.80;95.20;;;;;;5066764;28;20028;-84
2023/06/02 05:23:02;;;;;;;5.28;1.35;;;12.90;95.20;;;;;;5053996;28;20494;-84
2023/06/02 05:25:27;;;;;;;5.38;1.20;;;12.90;95.20;;;;;;5052354;28;20100;-84
2023/06/02 05:27:53;;;;;;;7.15;1.38;;;12.90;95.20;;;;;;5055349;28;20047;-84
2023/06/02 05:30:18;;;;;;;5.25;1.35;;;13.00;95.40;;;;;;5059565;28;20581;-85
2023/06/02 05:32:44;;;;;;;4.82;0.98;;;13.00;95.20;;;;;;5054379;28;20453;-85
2023/06/02 05:35:10;;;;;;;2.42;0.82;;;13.10;95.20;;;;;;5057408;28;20968;-84
2023/06/02 05:37:35;;;;;;;2.92;0.90;;;13.10;95.20;;;;;;5053469;28;20757;-84
2023/06/02 05:40:01;;;;;;;4.55;1.08;;;13.20;95.10;;;;;;5053863;28;20082;-85
2023/06/02 05:42:27;;;;;;;4.78;1.10;;;13.20;95.00;;;;;;5059056;28;20522;-85
2023/06/02 05:44:52;;;;;;;5.22;1.20;;;13.30;95.10;;;;;;5052967;28;20579;-85
2023/06/02 05:47:18;;;;;;;5.18;1.40;;;13.30;95.00;;;;;;5054061;28;20043;-85
2023/06/02 05:49:44;;;;;;;4.10;1.10;;;13.30;95.00;;;;;;5053414;28;20017;-84
2023/06/02 05:52:09;;;;;;;2.58;0.90;;;13.40;95.00;;;;;;5053239;28;20565;-84
2023/06/02 05:54:35;;;;;;;3.78;0.85;;;13.30;95.10;;;;;;5069174;28;20033;-84
2023/06/02 05:57:10;;;;;;;2.92;0.82;;;13.40;95.10;;;;;;5052516;28;20108;-85
2023/06/02 05:59:35;;;;;;;3.10;1.10;;;13.50;95.10;;;;;;5054355;28;20051;-84
2023/06/02 06:02:01;;;;;;;4.60;1.27;;;13.50;95.00;;;;;;5051980;28;20374;-83
2023/06/02 06:04:26;;;;;;;4.80;1.42;;;13.60;95.00;;;;;;5056784;28;20120;-83
2023/06/02 06:06:52;;;;;;;4.55;1.45;;;13.70;95.00;;;;;;5056135;28;20140;-83
2023/06/02 06:09:17;;;;;;;4.25;1.05;;;13.70;94.90;;;;;;5052185;28;20039;-82
2023/06/02 06:11:43;;;;;;;2.95;0.95;;;13.70;94.90;;;;;;5057806;28;20025;-81
2023/06/02 06:14:08;;;;;;;4.47;0.90;;;13.70;94.90;;;;;;5053601;28;20036;-84
2023/06/02 06:16:36;;;;;;;5.57;1.23;;;13.80;94.90;;;;;;5050003;28;20029;-84
2023/06/02 06:19:02;;;;;;;5.72;1.30;;;13.80;94.80;;;;;;5049430;28;20417;-84
2023/06/02 06:21:28;;;;;;;6.30;1.20;;;13.90;95.10;;;;;;5023825;28;1063741;-83
2023/06/02 06:23:54;;;;;;;2.85;1.10;;;13.90;94.80;;;;;;5073274;28;20032;-84
2023/06/02 06:26:20;;;;;;;6.95;1.45;;;13.90;94.90;;;;;;5060326;28;20122;-83
2023/06/02 06:28:46;;;;;;;4.10;1.17;;;13.90;94.80;;;;;;5055302;28;20028;-84
2023/06/02 06:31:11;;;;;;;5.15;1.20;;;13.90;94.80;;;;;;5072044;28;20040;-84
2023/06/02 06:33:37;;;;;;;4.68;1.10;;;13.90;94.80;;;;;;5061590;28;20041;-83
2023/06/02 06:36:02;;;;;;;4.20;1.00;;;13.90;94.70;;;;;;5071977;28;20047;-82
2023/06/02 06:38:28;;;;;;;6.47;1.20;;;14.00;94.70;;;;;;5062069;28;20032;-84
2023/06/02 06:40:53;;;;;;;3.55;1.50;;;14.00;94.70;;;;;;5056160;28;20058;-84
2023/06/02 06:43:19;;;;;;;5.28;1.15;;;14.00;94.70;;;;;;5073072;28;20033;-83
2023/06/02 06:45:44;;;;;;;5.57;1.02;;;14.00;94.70;;;;;;5071730;28;20585;-83
2023/06/02 06:48:10;;;;;;;3.75;1.27;;;14.10;94.70;;;;;;5059763;28;20028;-84
2023/06/02 06:50:36;;;;;;;5.18;1.05;;;14.20;94.70;;;;;;5060854;28;20024;-83
2023/06/02 06:53:05;;;;;;;3.75;1.02;;;14.20;94.70;;;;;;5056477;28;20180;-83
2023/06/02 06:55:30;;;;;;;6.43;1.10;;;14.30;94.60;;;;;;5063347;28;20024;-85
2023/06/02 06:57:56;;;;;;;6.63;1.50;;;14.30;94.50;;;;;;5070984;28;20058;-84
2023/06/02 07:00:21;;;;;;;5.90;1.38;;;14.40;94.50;;;;;;5063784;28;20120;-82
2023/06/02 07:02:48;;;;;;;3.83;1.20;;;14.40;94.70;;;;;;5072742;28;20035;-84
2023/06/02 07:05:17;;;;;;;5.40;1.20;;;14.40;94.50;;;;;;5071117;28;20174;-85
2023/06/02 07:07:43;;;;;;;4.45;1.33;;;14.50;94.50;;;;;;5056021;28;21071;-84
2023/06/02 07:10:10;;;;;;;3.40;0.90;;;14.40;94.50;;;;;;5059524;28;20024;-85
2023/06/02 07:12:36;;;;;;;3.63;1.00;;;14.60;94.60;;;;;;5055751;28;20067;-85
2023/06/02 07:15:03;;;;;;;4.70;1.10;;;14.60;94.50;;;;;;5055850;28;20914;-84
2023/06/02 07:17:28;;;;;;;4.97;1.10;;;14.60;94.50;;;;;;5062298;28;20027;-85
2023/06/02 07:19:54;;;;;;;5.75;1.20;;;14.70;94.60;;;;;;5062736;28;20439;-86
2023/06/02 07:22:21;;;;;;;3.90;1.10;;;14.60;94.50;;;;;;5072043;28;20094;-85
2023/06/02 07:24:47;;;;;;;6.22;1.10;;;14.70;94.60;;;;;;5058905;28;20120;-85
2023/06/02 07:27:13;;;;;;;8.68;1.52;;;14.60;94.70;;;;;;5062458;28;20032;-85
2023/06/02 07:29:39;;;;;;;5.65;1.30;;;14.60;94.70;;;;;;5061607;28;20047;-83
2023/06/02 07:32:05;;;;;;;5.75;1.10;;;14.60;94.80;;;;;;5062215;28;20124;-85
2023/06/02 07:34:31;;;;;;;6.00;1.10;;;14.60;94.90;;;;;;5054634;28;20211;-87
2023/06/02 07:36:57;;;;;;;5.60;1.13;;;14.70;94.90;;;;;;5058788;28;20525;-85
2023/06/02 07:39:23;;;;;;;5.25;1.10;;;14.70;94.90;;;;;;5063405;28;20039;-85
2023/06/02 07:41:49;;;;;;;4.15;0.98;;;14.70;94.90;;;;;;5073279;28;20456;-85
2023/06/02 07:44:14;;;;;;;5.13;1.30;;;14.60;94.90;;;;;;5060078;28;20473;-85
2023/06/02 07:46:40;;;;;;;4.28;1.15;;;14.60;95.30;;;;;;5061437;28;20028;-86
2023/06/02 07:49:06;;;;;;;6.45;1.40;;;14.70;95.10;;;;;;5071083;28;20039;-87
2023/06/02 07:51:31;;;;;;;4.95;1.30;;;14.70;95.10;;;;;;5067698;28;20032;-85
2023/06/02 07:53:57;;;;;;;4.03;1.25;;;14.70;95.10;;;;;;5059459;28;20039;-86
2023/06/02 07:56:22;;;;;;;5.00;1.30;;;14.70;95.10;;;;;;5069006;28;20516;-84
2023/06/02 07:58:48;;;;;;;4.20;1.08;;;14.60;95.10;;;;;;5054309;28;20115;-85
2023/06/02 08:01:14;;;;;;;4.78;0.85;;;14.70;95.20;;;;;;5058910;28;20107;-85
2023/06/02 08:03:40;;;;;;;3.90;1.13;;;14.80;95.20;;;;;;5058682;28;20143;-85
2023/06/02 08:06:06;;;;;;;4.80;1.20;;;14.80;95.20;;;;;;5055250;28;20028;-85
2023/06/02 08:08:32;;;;;;;2.35;0.90;;;14.90;95.20;;;;;;5073098;28;20022;-88
2023/06/02 08:10:58;;;;;;;5.50;1.17;;;15.00;95.20;;;;;;5064578;28;20020;-88
2023/06/02 08:13:23;;;;;;;4.63;1.25;;;15.00;95.20;;;;;;5060870;28;20035;-85
2023/06/02 08:15:49;;;;;;;3.63;1.17;;;15.00;95.20;;;;;;5057390;28;20023;-87
2023/06/02 08:18:15;;;;;;;5.70;1.20;;;15.00;95.20;;;;;;5058220;28;20510;-85
2023/06/02 08:20:45;;;;;;;4.30;1.25;;;15.00;95.20;;;;;;5072419;28;20025;-86
2023/06/02 08:23:11;;;;;;;5.18;1.40;;;15.00;95.20;;;;;;5071223;28;20035;-85
2023/06/02 08:25:38;;;;;;;4.65;1.83;;;15.00;95.30;;;;;;5057462;28;20490;-83
2023/06/02 08:28:07;;;;;;;5.80;1.40;;;15.10;95.40;;;;;;5069004;28;20033;-84
2023/06/02 08:30:36;;;;;;;5.38;1.35;;;15.20;95.30;;;;;;5062840;28;20025;-82
2023/06/02 08:33:03;;;;;;;7.72;1.45;;;15.20;95.30;;;;;;5055315;28;20409;-86
2023/06/02 08:35:30;;;;;;;5.55;1.50;;;15.20;95.30;;;;;;5071057;28;20028;-84
2023/06/02 08:37:56;;;;;;;5.38;1.33;;;15.20;95.30;;;;;;5070874;28;20036;-84
2023/06/02 08:40:25;;;;;;;6.18;1.55;;;15.20;95.40;;;;;;5056348;28;20028;-84
2023/06/02 08:42:51;;;;;;;5.68;1.20;;;15.30;95.40;;;;;;5059169;28;20687;-84
2023/06/02 08:45:20;;;;;;;5.07;1.73;;;15.40;95.30;;;;;;5055729;28;20024;-82
2023/06/02 08:47:52;;;;;;;8.75;2.35;;;15.50;95.60;;;;;;5071565;28;20025;-85
2023/06/02 08:50:19;;;;;;;8.73;1.77;;;15.50;95.40;;;;;;5058764;28;20024;-84
2023/06/02 08:52:46;;;;;;;6.00;1.50;;;15.60;95.40;;;;;;5073353;28;20090;-83
2023/06/02 08:55:12;;;;;;;4.15;1.20;;;15.60;95.40;;;;;;5070653;28;20024;-84
2023/06/02 08:57:38;;;;;;;5.05;1.80;;;15.80;95.40;;;;;;5051069;28;20114;-83
2023/06/02 09:00:05;;;;;;;4.97;1.77;;;15.80;95.40;;;;;;5056560;28;20284;-82
2023/06/02 09:02:31;;;;;;;5.95;1.58;;;15.90;95.30;;;;;;5058772;28;20016;-84
2023/06/02 09:04:58;;;;;;;10.07;1.92;;;16.00;95.30;;;;;;5053395;28;20031;-83
2023/06/02 09:07:24;;;;;;;7.10;1.92;;;15.90;95.30;;;;;;5057270;28;20031;-83
2023/06/02 09:09:53;;;;;;;6.95;1.60;;;16.00;95.40;;;;;;5058933;28;20024;-83
2023/06/02 09:12:20;;;;;;;7.13;1.80;;;16.20;95.30;;;;;;5068467;28;20043;-81
2023/06/02 09:14:48;;;;;;;6.32;1.67;;;16.30;95.30;;;;;;5068066;28;20497;-84
2023/06/02 09:17:28;;;;;;;5.70;1.70;;;16.30;95.20;;;;;;5057574;28;20052;-83
2023/06/02 09:20:07;;;;;;;5.75;1.50;;;16.20;95.20;;;;;;5058754;28;20039;-83
2023/06/02 09:22:33;;;;;;;5.05;1.48;;;16.20;95.40;;;;;;5064522;28;20071;-83
2023/06/02 09:24:58;;;;;;;8.10;1.40;;;16.20;95.40;;;;;;5056942;28;20032;-83
2023/06/02 09:27:28;;;;;;;8.05;2.20;;;16.40;95.30;;;;;;5073683;28;20032;-84
2023/06/02 09:30:03;;;;;;;6.95;1.40;;;16.40;95.20;;;;;;5072922;28;20198;-83
2023/06/02 09:32:28;;;;;;;4.55;1.50;;;16.50;95.30;;;;;;5061754;28;20085;-83
2023/06/02 09:34:54;;;;;;;5.43;1.23;;;16.60;95.30;;;;;;5073484;28;20028;-84
2023/06/02 09:37:21;;;;;;;4.97;1.48;;;16.70;95.30;;;;;;5059052;28;20058;-84
2023/06/02 09:39:52;;;;;;;4.20;1.55;;;16.80;95.50;;;;;;5071958;28;20032;-83
2023/06/02 09:42:19;;;;;;;4.75;1.30;;;16.90;95.20;;;;;;5072686;28;20125;-82
2023/06/02 09:45:05;;;;;;;3.35;1.17;;;16.90;95.20;;;;;;5072619;28;20101;-83
2023/06/02 09:47:37;;;;;;;4.72;1.55;;;17.00;95.20;;;;;;5057131;28;20032;-83
2023/06/02 09:50:04;;;;;;;6.72;1.52;;;17.20;95.10;;;;;;5057662;28;20501;-82
2023/06/02 09:52:30;;;;;;;4.20;1.23;;;17.40;95.00;;;;;;5062255;28;20792;-84
2023/06/02 09:54:56;;;;;;;5.78;1.35;;;17.50;94.90;;;;;;5053824;28;20020;-84
2023/06/02 09:57:23;;;;;;;4.70;1.48;;;17.50;94.90;;;;;;5057882;28;20044;-83
2023/06/02 09:59:48;;;;;;;3.15;1.27;;;17.60;94.90;;;;;;5072388;28;20770;-82
2023/06/02 10:02:15;;;;;;;3.97;1.30;;;17.70;94.90;;;;;;5057440;28;20111;-83
2023/06/02 10:04:41;;;;;;;4.75;1.42;;;17.80;94.80;;;;;;5070976;28;20028;-82
2023/06/02 10:07:42;;;;;;;5.80;1.77;;;17.70;94.70;;;;;;5071083;28;20028;-81
2023/06/02 10:10:10;;;;;;;4.13;1.73;;;17.70;94.70;;;;;;5064681;28;20513;-83
2023/06/02 10:12:57;;;;;;;4.20;1.50;;;17.70;94.80;;;;;;5070432;28;20131;-83
2023/06/02 10:15:41;;;;;;;5.45;2.33;;;17.80;94.60;;;;;;5069131;28;20035;-81
2023/06/02 10:18:18;;;;;;;6.20;1.80;;;17.80;94.50;;;;;;5073433;28;20028;-84
2023/06/02 10:21:08;;;;;;;3.95;1.60;;;17.80;94.50;;;;;;5065172;28;20032;-84
2023/06/02 10:23:53;;;;;;;4.25;1.67;;;17.90;94.50;;;;;;5062336;28;20628;-83
2023/06/02 10:26:58;;;;;;;9.02;2.10;;;18.20;94.50;;;;;;5048003;28;20065;-85
2023/06/02 10:29:25;;;;;;;5.40;1.67;;;18.70;94.20;;;;;;5059472;28;20028;-83
2023/06/02 10:31:51;;;;;;;6.72;2.15;;;18.90;94.00;;;;;;5074571;28;20066;-84
2023/06/02 10:34:36;;;;;;;4.20;1.38;;;18.90;93.90;;;;;;5072401;28;20127;-85
2023/06/02 10:37:04;;;;;;;6.28;1.95;;;18.90;94.00;;;;;;5055165;28;20056;-83
2023/06/02 10:39:39;;;;;;;4.75;1.40;;;18.90;94.00;;;;;;5072620;28;20105;-85
2023/06/02 10:42:14;;;;;;;5.78;1.52;;;19.20;94.00;;;;;;5058156;28;20473;-83
2023/06/02 10:44:40;;;;;;;5.47;1.65;;;19.30;93.90;;;;;;5062841;28;20086;-85
2023/06/02 10:47:18;;;;;;;4.55;1.52;;;19.30;93.70;;;;;;5057607;28;20027;-84
2023/06/02 10:49:55;;;;;;;4.50;2.00;;;19.20;93.70;;;;;;5072640;28;20032;-83
2023/06/02 10:52:21;;;;;;;6.55;1.77;;;19.20;93.80;;;;;;5057105;28;20482;-85
2023/06/02 10:55:09;;;;;;;6.20;1.85;;;19.10;93.80;;;;;;5071097;28;20074;-87
2023/06/02 10:57:55;;;;;;;10.40;2.35;;;19.20;93.90;;;;;;5059962;28;20135;-85
2023/06/02 11:00:35;;;;;;;6.35;1.83;;;19.50;93.70;;;;;;5075972;28;20028;-81
2023/06/02 11:03:25;;;;;;;5.80;1.70;;;20.00;93.50;;;;;;5075759;28;20028;-84
2023/06/02 11:06:11;;;;;;;6.50;1.88;;;20.10;93.20;;;;;;5069970;28;20035;-88
2023/06/02 11:08:37;;;;;;;6.18;1.88;;;20.00;93.30;;;;;;5068054;28;20032;-86
2023/06/02 11:11:04;;;;;;;5.40;2.30;;;20.00;93.30;;;;;;5081287;28;20502;-83
2023/06/02 11:13:29;;;;;;;7.75;2.03;;;20.10;93.30;;;;;;5078793;28;20093;-82
2023/06/02 11:15:58;;;;;;;6.78;1.90;;;19.90;93.20;;;;;;5081778;28;20133;-85
2023/06/02 11:18:32;;;;;;;5.97;1.77;;;20.10;93.40;;;;;;5066632;28;20368;-84
2023/06/02 11:21:15;;;;;;;5.47;1.70;;;20.60;93.10;;;;;;5067016;28;20023;-85
2023/06/02 11:23:44;;;;;;;4.65;1.70;;;20.70;92.80;;;;;;5080286;28;20040;-82
2023/06/02 11:26:21;;;;;;;4.60;1.63;;;20.70;92.90;;;;;;5066990;28;20028;-86
2023/06/02 11:28:47;;;;;;;5.15;1.88;;;20.70;92.80;;;;;;5078116;28;20028;-83
2023/06/02 11:31:17;;;;;;;4.93;1.77;;;20.70;92.80;;;;;;5073442;28;20355;-84
2023/06/02 11:33:48;;;;;;;4.55;1.60;;;20.60;92.80;;;;;;5074972;28;20041;-83
2023/06/02 11:36:15;;;;;;;5.80;1.85;;;20.50;92.80;;;;;;5084562;28;20052;-87
2023/06/02 11:38:42;;;;;;;4.28;1.55;;;20.30;92.70;;;;;;5081218;28;20035;-88
2023/06/02 11:41:09;;;;;;;5.00;2.00;;;20.00;92.80;;;;;;5075000;28;20020;-88
2023/06/02 11:43:35;;;;;;;6.43;1.88;;;20.00;92.90;;;;;;5067210;28;20474;-88
2023/06/02 11:46:09;;;;;;;6.70;1.55;;;20.10;93.00;;;;;;5075873;28;20053;-88
2023/06/02 11:48:38;;;;;;;6.90;1.75;;;20.30;92.90;;;;;;5082411;28;20024;-87
2023/06/02 11:51:09;;;;;;;5.13;1.42;;;20.60;92.70;;;;;;5070334;28;20823;-86
2023/06/02 11:53:37;;;;;;;5.38;1.85;;;21.10;92.70;;;;;;5074633;28;20031;-87
2023/06/02 11:56:06;;;;;;;5.00;1.73;;;21.70;92.30;;;;;;5086212;28;20088;-85
2023/06/02 11:58:40;;;;;;;5.25;1.98;;;22.10;92.00;;;;;;5073507;28;20636;-88
2023/06/02 12:01:10;;;;;;;5.05;1.70;;;22.20;91.80;;;;;;5067339;28;20028;-88
2023/06/02 12:03:36;;;;;;;5.72;1.55;;;22.20;91.90;;;;;;5066500;28;20024;-86
2023/06/02 12:06:15;;;;;;;4.65;1.50;;;22.40;91.70;;;;;;5067053;28;20512;-88
2023/06/02 12:08:41;;;;;;;4.88;1.88;;;22.30;91.60;;;;;;5078753;28;20089;-83
2023/06/02 12:11:18;;;;;;;7.20;1.67;;;22.40;91.50;;;;;;5074535;28;20028;-82
2023/06/02 12:14:06;;;;;;;6.97;1.92;;;22.50;91.40;;;;;;5079984;28;20071;-86
2023/06/02 12:16:33;;;;;;;7.40;1.90;;;22.50;91.40;;;;;;5075172;28;20516;-86
2023/06/02 12:19:15;;;;;;;5.03;1.88;;;22.50;91.30;;;;;;5082962;28;20107;-85
2023/06/02 12:21:42;;;;;;;5.50;1.73;;;22.50;91.30;;;;;;5069089;28;20454;-86
2023/06/02 12:24:08;;;;;;;4.30;1.30;;;22.50;91.40;;;;;;5071955;28;20051;-86
2023/06/02 12:26:45;;;;;;;5.00;1.58;;;22.50;91.20;;;;;;5066099;28;20063;-85
2023/06/02 12:29:11;;;;;;;4.28;1.73;;;22.30;91.20;;;;;;5075944;28;20388;-82
2023/06/02 12:31:38;;;;;;;3.47;1.38;;;22.40;91.30;;;;;;5055643;28;20631;-83
2023/06/02 12:34:08;;;;;;;4.32;1.73;;;22.50;91.20;;;;;;5057180;28;20044;-81
2023/06/02 12:36:35;;;;;;;5.10;1.67;;;22.50;91.10;;;;;;5073539;28;20039;-82
2023/06/02 12:39:03;;;;;;;5.38;1.85;;;22.90;91.30;;;;;;5072473;28;20161;-82
2023/06/02 12:41:29;;;;;;;6.22;1.85;;;23.50;90.90;;;;;;5070730;28;20028;-83
2023/06/02 12:43:54;;;;;;;5.18;1.58;;;24.20;90.70;;;;;;5056687;28;20028;-83
2023/06/02 12:46:20;;;;;;;6.18;1.75;;;24.90;90.40;;;;;;5072889;28;20661;-83
2023/06/02 12:48:47;;;;;;;6.70;2.03;;;25.40;90.00;;;;;;5058572;28;20035;-82